sensor_id;sensor_type;location;lat;lon;timestamp;P1;durP1;ratioP1;P2;durP2;ratioP2
76576;SDS011;65441;44.748;37.600;2022-12-31T00:01:32;5.32;;;1.17;;
76576;SDS011;65441;44.748;37.600;2022-12-31T00:04:09;4.45;;;1.48;;
76576;SDS011;65441;44.748;37.600;2022-12-31T00:06:44;5.53;;;1.30;;
76576;SDS011;65441;44.748;37.600;2022-12-31T00:09:18;3.55;;;1.15;;
76576;SDS011;65441;44.748;37.600;2022-12-31T00:11:54;4.88;;;1.35;;
76576;SDS011;65441;44.748;37.600;2022-12-31T00:14:28;9.23;;;1.70;;
76576;SDS011;65441;44.748;37.600;2022-12-31T00:17:03;8.23;;;1.50;;
76576;SDS011;65441;44.748;37.600;2022-12-31T00:19:37;4.25;;;1.15;;
76576;SDS011;65441;44.748;37.600;2022-12-31T00:22:11;5.40;;;1.63;;
76576;SDS011;65441;44.748;37.600;2022-12-31T00:24:45;9.07;;;1.75;;
76576;SDS011;65441;44.748;37.600;2022-12-31T00:27:21;7.82;;;1.70;;
76576;SDS011;65441;44.748;37.600;2022-12-31T00:29:55;4.63;;;1.38;;
76576;SDS011;65441;44.748;37.600;2022-12-31T00:32:33;6.95;;;1.73;;
76576;SDS011;65441;44.748;37.600;2022-12-31T00:35:08;5.50;;;1.50;;
76576;SDS011;65441;44.748;37.600;2022-12-31T00:37:42;10.50;;;1.30;;
76576;SDS011;65441;44.748;37.600;2022-12-31T00:40:17;6.82;;;1.77;;
76576;SDS011;65441;44.748;37.600;2022-12-31T00:42:57;6.13;;;1.52;;
76576;SDS011;65441;44.748;37.600;2022-12-31T00:45:36;9.15;;;1.25;;
76576;SDS011;65441;44.748;37.600;2022-12-31T00:50:44;8.13;;;1.65;;
76576;SDS011;65441;44.748;37.600;2022-12-31T00:53:19;7.15;;;1.58;;
76576;SDS011;65441;44.748;37.600;2022-12-31T00:55:58;5.30;;;1.55;;
76576;SDS011;65441;44.748;37.600;2022-12-31T00:58:34;8.20;;;1.67;;
76576;SDS011;65441;44.748;37.600;2022-12-31T01:01:09;9.15;;;1.65;;
76576;SDS011;65441;44.748;37.600;2022-12-31T01:03:49;8.02;;;1.48;;
76576;SDS011;65441;44.748;37.600;2022-12-31T01:06:27;9.52;;;1.63;;
76576;SDS011;65441;44.748;37.600;2022-12-31T01:09:02;7.50;;;1.48;;
76576;SDS011;65441;44.748;37.600;2022-12-31T01:11:40;5.70;;;1.40;;
76576;SDS011;65441;44.748;37.600;2022-12-31T01:14:16;10.57;;;1.63;;
76576;SDS011;65441;44.748;37.600;2022-12-31T01:16:52;7.53;;;1.25;;
76576;SDS011;65441;44.748;37.600;2022-12-31T01:19:27;4.38;;;0.90;;
76576;SDS011;65441;44.748;37.600;2022-12-31T01:22:01;8.35;;;1.65;;
76576;SDS011;65441;44.748;37.600;2022-12-31T01:27:09;4.90;;;1.25;;
76576;SDS011;65441;44.748;37.600;2022-12-31T01:29:48;8.43;;;1.42;;
76576;SDS011;65441;44.748;37.600;2022-12-31T01:32:23;7.05;;;1.33;;
76576;SDS011;65441;44.748;37.600;2022-12-31T01:34:57;6.65;;;1.52;;
76576;SDS011;65441;44.748;37.600;2022-12-31T01:37:31;7.47;;;1.60;;
76576;SDS011;65441;44.748;37.600;2022-12-31T01:40:06;9.55;;;1.67;;
76576;SDS011;65441;44.748;37.600;2022-12-31T01:42:40;6.55;;;1.35;;
76576;SDS011;65441;44.748;37.600;2022-12-31T01:47:50;5.03;;;1.50;;
76576;SDS011;65441;44.748;37.600;2022-12-31T01:50:28;6.22;;;1.45;;
76576;SDS011;65441;44.748;37.600;2022-12-31T01:53:05;7.00;;;1.65;;
76576;SDS011;65441;44.748;37.600;2022-12-31T01:55:42;8.73;;;1.70;;
76576;SDS011;65441;44.748;37.600;2022-12-31T01:58:24;7.38;;;1.83;;
76576;SDS011;65441;44.748;37.600;2022-12-31T02:01:02;7.65;;;1.88;;
76576;SDS011;65441;44.748;37.600;2022-12-31T02:03:41;8.32;;;1.98;;
76576;SDS011;65441;44.748;37.600;2022-12-31T02:08:52;7.97;;;1.80;;
76576;SDS011;65441;44.748;37.600;2022-12-31T02:11:27;8.02;;;2.10;;
76576;SDS011;65441;44.748;37.600;2022-12-31T02:14:05;10.82;;;1.88;;
76576;SDS011;65441;44.748;37.600;2022-12-31T02:16:47;5.28;;;1.33;;
76576;SDS011;65441;44.748;37.600;2022-12-31T02:19:42;6.60;;;1.70;;
76576;SDS011;65441;44.748;37.600;2022-12-31T02:22:47;8.63;;;1.88;;
76576;SDS011;65441;44.748;37.600;2022-12-31T02:25:49;5.78;;;1.73;;
76576;SDS011;65441;44.748;37.600;2022-12-31T02:28:48;6.50;;;1.60;;
76576;SDS011;65441;44.748;37.600;2022-12-31T02:31:34;9.88;;;2.45;;
76576;SDS011;65441;44.748;37.600;2022-12-31T02:34:12;9.05;;;1.60;;
76576;SDS011;65441;44.748;37.600;2022-12-31T02:36:55;9.70;;;1.90;;
76576;SDS011;65441;44.748;37.600;2022-12-31T02:39:37;7.57;;;1.58;;
76576;SDS011;65441;44.748;37.600;2022-12-31T02:42:13;6.85;;;1.77;;
76576;SDS011;65441;44.748;37.600;2022-12-31T02:44:47;7.78;;;1.67;;
76576;SDS011;65441;44.748;37.600;2022-12-31T02:50:12;4.00;;;0.98;;
76576;SDS011;65441;44.748;37.600;2022-12-31T02:52:57;7.88;;;1.58;;
76576;SDS011;65441;44.748;37.600;2022-12-31T02:55:43;5.85;;;1.52;;
76576;SDS011;65441;44.748;37.600;2022-12-31T02:58:26;8.15;;;2.20;;
76576;SDS011;65441;44.748;37.600;2022-12-31T03:01:22;7.32;;;1.63;;
76576;SDS011;65441;44.748;37.600;2022-12-31T03:04:23;9.55;;;2.40;;
76576;SDS011;65441;44.748;37.600;2022-12-31T03:07:05;7.45;;;1.67;;
76576;SDS011;65441;44.748;37.600;2022-12-31T03:09:43;9.65;;;2.00;;
76576;SDS011;65441;44.748;37.600;2022-12-31T03:12:18;8.32;;;2.03;;
76576;SDS011;65441;44.748;37.600;2022-12-31T03:15:12;8.50;;;2.00;;
76576;SDS011;65441;44.748;37.600;2022-12-31T03:17:58;12.13;;;2.00;;
76576;SDS011;65441;44.748;37.600;2022-12-31T03:20:37;14.02;;;2.83;;
76576;SDS011;65441;44.748;37.600;2022-12-31T03:23:30;7.20;;;2.10;;
76576;SDS011;65441;44.748;37.600;2022-12-31T03:26:07;9.52;;;2.35;;
76576;SDS011;65441;44.748;37.600;2022-12-31T03:28:42;5.88;;;1.90;;
76576;SDS011;65441;44.748;37.600;2022-12-31T03:31:18;7.53;;;2.22;;
76576;SDS011;65441;44.748;37.600;2022-12-31T03:33:52;6.35;;;2.10;;
76576;SDS011;65441;44.748;37.600;2022-12-31T03:39:01;5.72;;;2.10;;
76576;SDS011;65441;44.748;37.600;2022-12-31T03:41:36;8.25;;;2.05;;
76576;SDS011;65441;44.748;37.600;2022-12-31T03:44:10;10.95;;;2.30;;
76576;SDS011;65441;44.748;37.600;2022-12-31T03:46:44;11.68;;;2.50;;
76576;SDS011;65441;44.748;37.600;2022-12-31T03:51:53;10.73;;;2.78;;
76576;SDS011;65441;44.748;37.600;2022-12-31T03:54:29;10.80;;;2.50;;
76576;SDS011;65441;44.748;37.600;2022-12-31T03:57:03;10.63;;;3.63;;
76576;SDS011;65441;44.748;37.600;2022-12-31T04:02:10;10.73;;;2.75;;
76576;SDS011;65441;44.748;37.600;2022-12-31T04:07:19;11.82;;;2.50;;
76576;SDS011;65441;44.748;37.600;2022-12-31T04:09:53;10.63;;;2.95;;
76576;SDS011;65441;44.748;37.600;2022-12-31T04:12:28;11.73;;;2.72;;
76576;SDS011;65441;44.748;37.600;2022-12-31T04:17:41;10.73;;;2.78;;
76576;SDS011;65441;44.748;37.600;2022-12-31T04:20:15;10.65;;;3.13;;
76576;SDS011;65441;44.748;37.600;2022-12-31T04:22:51;8.55;;;3.15;;
76576;SDS011;65441;44.748;37.600;2022-12-31T04:25:25;10.93;;;3.47;;
76576;SDS011;65441;44.748;37.600;2022-12-31T04:27:59;9.27;;;3.42;;
76576;SDS011;65441;44.748;37.600;2022-12-31T04:30:33;9.73;;;3.00;;
76576;SDS011;65441;44.748;37.600;2022-12-31T04:33:12;6.95;;;2.78;;
76576;SDS011;65441;44.748;37.600;2022-12-31T04:35:46;11.80;;;4.15;;
76576;SDS011;65441;44.748;37.600;2022-12-31T04:38:26;9.07;;;2.85;;
76576;SDS011;65441;44.748;37.600;2022-12-31T04:41:03;10.95;;;3.70;;
76576;SDS011;65441;44.748;37.600;2022-12-31T04:43:51;11.05;;;4.20;;
76576;SDS011;65441;44.748;37.600;2022-12-31T04:46:27;10.63;;;3.83;;
76576;SDS011;65441;44.748;37.600;2022-12-31T04:49:02;8.70;;;3.80;;
76576;SDS011;65441;44.748;37.600;2022-12-31T04:51:36;9.25;;;4.00;;
76576;SDS011;65441;44.748;37.600;2022-12-31T04:54:12;11.02;;;4.35;;
76576;SDS011;65441;44.748;37.600;2022-12-31T04:56:46;12.55;;;5.25;;
76576;SDS011;65441;44.748;37.600;2022-12-31T05:01:53;14.50;;;5.00;;
76576;SDS011;65441;44.748;37.600;2022-12-31T05:04:27;11.93;;;5.50;;
76576;SDS011;65441;44.748;37.600;2022-12-31T05:09:37;14.27;;;5.55;;
76576;SDS011;65441;44.748;37.600;2022-12-31T05:12:11;13.95;;;6.03;;
76576;SDS011;65441;44.748;37.600;2022-12-31T05:14:45;14.30;;;5.68;;
76576;SDS011;65441;44.748;37.600;2022-12-31T05:17:19;12.50;;;6.10;;
76576;SDS011;65441;44.748;37.600;2022-12-31T05:19:53;15.00;;;6.22;;
76576;SDS011;65441;44.748;37.600;2022-12-31T05:25:03;14.35;;;6.80;;
76576;SDS011;65441;44.748;37.600;2022-12-31T05:27:38;13.55;;;5.72;;
76576;SDS011;65441;44.748;37.600;2022-12-31T05:30:12;14.73;;;6.95;;
76576;SDS011;65441;44.748;37.600;2022-12-31T05:32:48;14.88;;;6.53;;
76576;SDS011;65441;44.748;37.600;2022-12-31T05:35:23;13.73;;;7.15;;
76576;SDS011;65441;44.748;37.600;2022-12-31T05:37:58;15.05;;;7.30;;
76576;SDS011;65441;44.748;37.600;2022-12-31T05:40:33;16.75;;;7.25;;
76576;SDS011;65441;44.748;37.600;2022-12-31T05:43:07;16.52;;;7.72;;
76576;SDS011;65441;44.748;37.600;2022-12-31T05:45:42;14.90;;;7.15;;
76576;SDS011;65441;44.748;37.600;2022-12-31T05:48:18;17.55;;;8.10;;
76576;SDS011;65441;44.748;37.600;2022-12-31T05:53:26;14.23;;;6.47;;
76576;SDS011;65441;44.748;37.600;2022-12-31T05:56:03;16.13;;;7.05;;
76576;SDS011;65441;44.748;37.600;2022-12-31T05:58:38;15.25;;;6.95;;
76576;SDS011;65441;44.748;37.600;2022-12-31T06:01:12;16.90;;;7.55;;
76576;SDS011;65441;44.748;37.600;2022-12-31T06:06:19;18.17;;;7.15;;
76576;SDS011;65441;44.748;37.600;2022-12-31T06:08:54;16.60;;;7.00;;
76576;SDS011;65441;44.748;37.600;2022-12-31T06:11:34;14.90;;;6.20;;
76576;SDS011;65441;44.748;37.600;2022-12-31T06:14:11;15.43;;;7.32;;
76576;SDS011;65441;44.748;37.600;2022-12-31T06:16:46;15.95;;;7.20;;
76576;SDS011;65441;44.748;37.600;2022-12-31T06:19:21;13.18;;;6.70;;
76576;SDS011;65441;44.748;37.600;2022-12-31T06:22:00;13.73;;;6.78;;
76576;SDS011;65441;44.748;37.600;2022-12-31T06:24:39;16.42;;;7.55;;
76576;SDS011;65441;44.748;37.600;2022-12-31T06:27:15;19.50;;;7.50;;
76576;SDS011;65441;44.748;37.600;2022-12-31T06:29:50;19.65;;;7.20;;
76576;SDS011;65441;44.748;37.600;2022-12-31T06:37:31;16.75;;;7.53;;
76576;SDS011;65441;44.748;37.600;2022-12-31T06:40:06;15.88;;;7.05;;
76576;SDS011;65441;44.748;37.600;2022-12-31T06:42:42;23.10;;;8.95;;
76576;SDS011;65441;44.748;37.600;2022-12-31T06:45:19;21.70;;;8.95;;
76576;SDS011;65441;44.748;37.600;2022-12-31T06:47:57;18.83;;;9.07;;
76576;SDS011;65441;44.748;37.600;2022-12-31T06:50:31;18.50;;;9.23;;
76576;SDS011;65441;44.748;37.600;2022-12-31T06:53:05;18.25;;;8.48;;
76576;SDS011;65441;44.748;37.600;2022-12-31T06:58:15;17.17;;;8.48;;
76576;SDS011;65441;44.748;37.600;2022-12-31T07:00:51;16.85;;;7.53;;
76576;SDS011;65441;44.748;37.600;2022-12-31T07:03:34;18.75;;;8.07;;
76576;SDS011;65441;44.748;37.600;2022-12-31T07:06:12;18.75;;;9.02;;
76576;SDS011;65441;44.748;37.600;2022-12-31T07:08:50;26.08;;;9.73;;
76576;SDS011;65441;44.748;37.600;2022-12-31T07:11:34;22.80;;;8.68;;
76576;SDS011;65441;44.748;37.600;2022-12-31T07:14:19;24.50;;;9.48;;
76576;SDS011;65441;44.748;37.600;2022-12-31T07:17:10;26.08;;;10.38;;
76576;SDS011;65441;44.748;37.600;2022-12-31T07:20:02;18.80;;;8.93;;
76576;SDS011;65441;44.748;37.600;2022-12-31T07:22:45;19.63;;;7.85;;
76576;SDS011;65441;44.748;37.600;2022-12-31T07:25:20;21.50;;;9.70;;
76576;SDS011;65441;44.748;37.600;2022-12-31T07:27:58;18.83;;;8.25;;
76576;SDS011;65441;44.748;37.600;2022-12-31T07:30:43;24.55;;;10.05;;
76576;SDS011;65441;44.748;37.600;2022-12-31T07:33:27;17.88;;;8.85;;
76576;SDS011;65441;44.748;37.600;2022-12-31T07:36:17;19.42;;;9.18;;
76576;SDS011;65441;44.748;37.600;2022-12-31T07:39:02;21.33;;;9.30;;
76576;SDS011;65441;44.748;37.600;2022-12-31T07:41:51;19.33;;;9.32;;
76576;SDS011;65441;44.748;37.600;2022-12-31T07:47:33;18.60;;;9.23;;
76576;SDS011;65441;44.748;37.600;2022-12-31T07:50:13;20.05;;;8.50;;
76576;SDS011;65441;44.748;37.600;2022-12-31T07:52:51;18.33;;;8.55;;
76576;SDS011;65441;44.748;37.600;2022-12-31T07:55:27;21.75;;;8.68;;
76576;SDS011;65441;44.748;37.600;2022-12-31T07:58:02;18.63;;;7.32;;
76576;SDS011;65441;44.748;37.600;2022-12-31T08:00:48;21.83;;;8.85;;
76576;SDS011;65441;44.748;37.600;2022-12-31T08:03:36;17.05;;;7.05;;
76576;SDS011;65441;44.748;37.600;2022-12-31T08:09:00;20.55;;;8.75;;
76576;SDS011;65441;44.748;37.600;2022-12-31T08:11:41;18.08;;;7.88;;
76576;SDS011;65441;44.748;37.600;2022-12-31T08:14:22;19.35;;;8.93;;
76576;SDS011;65441;44.748;37.600;2022-12-31T08:16:56;21.08;;;7.93;;
76576;SDS011;65441;44.748;37.600;2022-12-31T08:19:37;20.55;;;9.35;;
76576;SDS011;65441;44.748;37.600;2022-12-31T08:22:20;20.80;;;9.40;;
76576;SDS011;65441;44.748;37.600;2022-12-31T08:25:17;22.45;;;9.75;;
76576;SDS011;65441;44.748;37.600;2022-12-31T08:27:58;22.77;;;10.07;;
76576;SDS011;65441;44.748;37.600;2022-12-31T08:30:43;18.85;;;9.48;;
76576;SDS011;65441;44.748;37.600;2022-12-31T08:33:25;21.65;;;10.00;;
76576;SDS011;65441;44.748;37.600;2022-12-31T08:36:09;23.00;;;10.25;;
76576;SDS011;65441;44.748;37.600;2022-12-31T08:38:51;23.85;;;10.38;;
76576;SDS011;65441;44.748;37.600;2022-12-31T08:41:31;21.35;;;9.68;;
76576;SDS011;65441;44.748;37.600;2022-12-31T08:44:18;20.10;;;9.73;;
76576;SDS011;65441;44.748;37.600;2022-12-31T08:47:03;23.42;;;9.02;;
76576;SDS011;65441;44.748;37.600;2022-12-31T08:49:43;24.10;;;10.73;;
76576;SDS011;65441;44.748;37.600;2022-12-31T08:52:20;25.92;;;10.65;;
76576;SDS011;65441;44.748;37.600;2022-12-31T08:55:00;26.38;;;10.48;;
76576;SDS011;65441;44.748;37.600;2022-12-31T08:57:38;20.58;;;9.48;;
76576;SDS011;65441;44.748;37.600;2022-12-31T09:00:18;24.23;;;10.30;;
76576;SDS011;65441;44.748;37.600;2022-12-31T09:03:03;27.13;;;10.57;;
76576;SDS011;65441;44.748;37.600;2022-12-31T09:05:52;25.00;;;11.32;;
76576;SDS011;65441;44.748;37.600;2022-12-31T09:08:38;32.28;;;13.20;;
76576;SDS011;65441;44.748;37.600;2022-12-31T09:11:21;27.13;;;11.32;;
76576;SDS011;65441;44.748;37.600;2022-12-31T09:20:16;24.27;;;11.68;;
76576;SDS011;65441;44.748;37.600;2022-12-31T09:22:56;27.73;;;12.55;;
76576;SDS011;65441;44.748;37.600;2022-12-31T09:25:33;26.58;;;11.45;;
76576;SDS011;65441;44.748;37.600;2022-12-31T09:28:16;24.65;;;12.18;;
76576;SDS011;65441;44.748;37.600;2022-12-31T09:31:02;24.35;;;10.95;;
76576;SDS011;65441;44.748;37.600;2022-12-31T09:33:41;26.65;;;11.50;;
76576;SDS011;65441;44.748;37.600;2022-12-31T09:36:24;25.23;;;10.68;;
76576;SDS011;65441;44.748;37.600;2022-12-31T09:39:03;26.70;;;11.70;;
76576;SDS011;65441;44.748;37.600;2022-12-31T09:41:50;28.35;;;11.98;;
76576;SDS011;65441;44.748;37.600;2022-12-31T09:44:57;25.30;;;11.60;;
76576;SDS011;65441;44.748;37.600;2022-12-31T09:48:00;28.98;;;12.40;;
76576;SDS011;65441;44.748;37.600;2022-12-31T09:50:56;24.60;;;10.23;;
76576;SDS011;65441;44.748;37.600;2022-12-31T09:53:52;33.85;;;14.10;;
76576;SDS011;65441;44.748;37.600;2022-12-31T09:59:58;27.00;;;11.38;;
76576;SDS011;65441;44.748;37.600;2022-12-31T10:02:57;32.55;;;12.18;;
76576;SDS011;65441;44.748;37.600;2022-12-31T10:05:49;27.30;;;10.70;;
76576;SDS011;65441;44.748;37.600;2022-12-31T10:08:37;22.90;;;10.23;;
76576;SDS011;65441;44.748;37.600;2022-12-31T10:11:20;31.30;;;14.98;;
76576;SDS011;65441;44.748;37.600;2022-12-31T10:14:06;33.05;;;11.80;;
76576;SDS011;65441;44.748;37.600;2022-12-31T10:17:06;25.55;;;11.13;;
76576;SDS011;65441;44.748;37.600;2022-12-31T10:19:58;25.52;;;11.43;;
76576;SDS011;65441;44.748;37.600;2022-12-31T10:22:58;28.92;;;12.77;;
76576;SDS011;65441;44.748;37.600;2022-12-31T10:26:03;27.75;;;10.52;;
76576;SDS011;65441;44.748;37.600;2022-12-31T10:28:51;25.83;;;11.68;;
76576;SDS011;65441;44.748;37.600;2022-12-31T10:31:36;25.15;;;10.88;;
76576;SDS011;65441;44.748;37.600;2022-12-31T10:34:13;25.52;;;10.80;;
76576;SDS011;65441;44.748;37.600;2022-12-31T10:36:54;23.90;;;11.68;;
76576;SDS011;65441;44.748;37.600;2022-12-31T10:39:42;27.77;;;12.95;;
76576;SDS011;65441;44.748;37.600;2022-12-31T10:45:41;21.38;;;9.45;;
76576;SDS011;65441;44.748;37.600;2022-12-31T10:48:52;22.67;;;9.50;;
76576;SDS011;65441;44.748;37.600;2022-12-31T10:51:53;23.60;;;10.80;;
76576;SDS011;65441;44.748;37.600;2022-12-31T10:58:06;24.92;;;9.63;;
76576;SDS011;65441;44.748;37.600;2022-12-31T11:01:08;20.92;;;9.85;;
76576;SDS011;65441;44.748;37.600;2022-12-31T11:04:00;22.17;;;9.68;;
76576;SDS011;65441;44.748;37.600;2022-12-31T11:13:27;19.98;;;9.10;;
76576;SDS011;65441;44.748;37.600;2022-12-31T11:16:32;22.85;;;10.73;;
76576;SDS011;65441;44.748;37.600;2022-12-31T11:19:20;20.80;;;10.07;;
76576;SDS011;65441;44.748;37.600;2022-12-31T11:22:10;22.40;;;9.45;;
76576;SDS011;65441;44.748;37.600;2022-12-31T11:25:05;22.17;;;10.40;;
76576;SDS011;65441;44.748;37.600;2022-12-31T11:28:01;22.38;;;9.52;;
76576;SDS011;65441;44.748;37.600;2022-12-31T11:31:14;28.05;;;11.27;;
76576;SDS011;65441;44.748;37.600;2022-12-31T11:34:04;31.05;;;10.90;;
76576;SDS011;65441;44.748;37.600;2022-12-31T11:36:53;20.80;;;9.15;;
76576;SDS011;65441;44.748;37.600;2022-12-31T11:39:43;21.75;;;9.65;;
76576;SDS011;65441;44.748;37.600;2022-12-31T11:42:35;22.23;;;11.52;;
76576;SDS011;65441;44.748;37.600;2022-12-31T11:45:20;23.15;;;11.10;;
76576;SDS011;65441;44.748;37.600;2022-12-31T11:48:15;21.88;;;9.07;;
76576;SDS011;65441;44.748;37.600;2022-12-31T11:51:01;24.52;;;9.52;;
76576;SDS011;65441;44.748;37.600;2022-12-31T11:53:54;20.05;;;8.63;;
76576;SDS011;65441;44.748;37.600;2022-12-31T11:56:49;19.00;;;8.68;;
76576;SDS011;65441;44.748;37.600;2022-12-31T11:59:30;23.02;;;10.45;;
76576;SDS011;65441;44.748;37.600;2022-12-31T12:02:24;25.00;;;9.88;;
76576;SDS011;65441;44.748;37.600;2022-12-31T12:05:02;23.73;;;10.30;;
76576;SDS011;65441;44.748;37.600;2022-12-31T12:07:38;17.15;;;8.48;;
76576;SDS011;65441;44.748;37.600;2022-12-31T12:10:22;20.77;;;9.98;;
76576;SDS011;65441;44.748;37.600;2022-12-31T12:12:57;24.10;;;10.48;;
76576;SDS011;65441;44.748;37.600;2022-12-31T12:15:32;21.23;;;8.52;;
76576;SDS011;65441;44.748;37.600;2022-12-31T12:18:12;17.85;;;8.82;;
76576;SDS011;65441;44.748;37.600;2022-12-31T12:21:02;19.50;;;9.30;;
76576;SDS011;65441;44.748;37.600;2022-12-31T12:23:40;19.48;;;9.15;;
76576;SDS011;65441;44.748;37.600;2022-12-31T12:26:29;21.40;;;10.10;;
76576;SDS011;65441;44.748;37.600;2022-12-31T12:29:09;22.33;;;10.52;;
76576;SDS011;65441;44.748;37.600;2022-12-31T12:31:53;25.08;;;11.63;;
76576;SDS011;65441;44.748;37.600;2022-12-31T12:34:29;21.52;;;9.77;;
76576;SDS011;65441;44.748;37.600;2022-12-31T12:37:06;21.92;;;9.77;;
76576;SDS011;65441;44.748;37.600;2022-12-31T12:39:54;21.58;;;9.10;;
76576;SDS011;65441;44.748;37.600;2022-12-31T12:42:31;26.73;;;11.95;;
76576;SDS011;65441;44.748;37.600;2022-12-31T12:45:09;24.98;;;10.32;;
76576;SDS011;65441;44.748;37.600;2022-12-31T12:47:48;29.02;;;12.80;;
76576;SDS011;65441;44.748;37.600;2022-12-31T12:50:31;39.10;;;17.98;;
76576;SDS011;65441;44.748;37.600;2022-12-31T12:53:17;29.65;;;12.75;;
76576;SDS011;65441;44.748;37.600;2022-12-31T12:56:01;18.02;;;8.80;;
76576;SDS011;65441;44.748;37.600;2022-12-31T12:58:45;23.70;;;9.45;;
76576;SDS011;65441;44.748;37.600;2022-12-31T13:01:28;23.88;;;11.27;;
76576;SDS011;65441;44.748;37.600;2022-12-31T13:04:25;22.80;;;11.63;;
76576;SDS011;65441;44.748;37.600;2022-12-31T13:07:15;22.77;;;9.80;;
76576;SDS011;65441;44.748;37.600;2022-12-31T13:10:05;24.52;;;11.10;;
76576;SDS011;65441;44.748;37.600;2022-12-31T13:12:56;19.98;;;9.93;;
76576;SDS011;65441;44.748;37.600;2022-12-31T13:15:37;21.63;;;9.73;;
76576;SDS011;65441;44.748;37.600;2022-12-31T13:18:22;25.73;;;11.63;;
76576;SDS011;65441;44.748;37.600;2022-12-31T13:21:06;24.13;;;12.30;;
76576;SDS011;65441;44.748;37.600;2022-12-31T13:24:12;27.10;;;12.43;;
76576;SDS011;65441;44.748;37.600;2022-12-31T13:27:03;23.90;;;11.35;;
76576;SDS011;65441;44.748;37.600;2022-12-31T13:29:43;25.00;;;10.98;;
76576;SDS011;65441;44.748;37.600;2022-12-31T13:32:22;30.40;;;12.93;;
76576;SDS011;65441;44.748;37.600;2022-12-31T13:35:15;39.50;;;17.88;;
76576;SDS011;65441;44.748;37.600;2022-12-31T13:37:56;22.88;;;10.52;;
76576;SDS011;65441;44.748;37.600;2022-12-31T13:40:37;27.65;;;13.25;;
76576;SDS011;65441;44.748;37.600;2022-12-31T13:43:17;23.90;;;9.70;;
76576;SDS011;65441;44.748;37.600;2022-12-31T13:46:02;22.20;;;10.98;;
76576;SDS011;65441;44.748;37.600;2022-12-31T13:48:43;21.67;;;10.73;;
76576;SDS011;65441;44.748;37.600;2022-12-31T13:51:27;25.23;;;10.77;;
76576;SDS011;65441;44.748;37.600;2022-12-31T13:54:09;21.05;;;8.63;;
76576;SDS011;65441;44.748;37.600;2022-12-31T13:57:00;28.33;;;11.13;;
76576;SDS011;65441;44.748;37.600;2022-12-31T13:59:38;22.70;;;10.45;;
76576;SDS011;65441;44.748;37.600;2022-12-31T14:02:23;24.90;;;10.93;;
76576;SDS011;65441;44.748;37.600;2022-12-31T14:05:12;25.50;;;10.93;;
76576;SDS011;65441;44.748;37.600;2022-12-31T14:07:49;26.35;;;10.48;;
76576;SDS011;65441;44.748;37.600;2022-12-31T14:10:28;23.58;;;10.32;;
76576;SDS011;65441;44.748;37.600;2022-12-31T14:13:27;20.13;;;10.48;;
76576;SDS011;65441;44.748;37.600;2022-12-31T14:16:23;24.85;;;11.70;;
76576;SDS011;65441;44.748;37.600;2022-12-31T14:19:04;20.52;;;9.95;;
76576;SDS011;65441;44.748;37.600;2022-12-31T14:21:48;47.97;;;22.40;;
76576;SDS011;65441;44.748;37.600;2022-12-31T14:24:30;34.55;;;17.73;;
76576;SDS011;65441;44.748;37.600;2022-12-31T14:27:15;41.88;;;19.65;;
76576;SDS011;65441;44.748;37.600;2022-12-31T14:29:54;27.90;;;15.02;;
76576;SDS011;65441;44.748;37.600;2022-12-31T14:32:37;27.42;;;12.65;;
76576;SDS011;65441;44.748;37.600;2022-12-31T14:35:33;25.02;;;12.95;;
76576;SDS011;65441;44.748;37.600;2022-12-31T14:38:22;34.53;;;14.32;;
76576;SDS011;65441;44.748;37.600;2022-12-31T14:41:12;29.40;;;13.02;;
76576;SDS011;65441;44.748;37.600;2022-12-31T14:44:00;35.95;;;14.43;;
76576;SDS011;65441;44.748;37.600;2022-12-31T14:46:50;23.65;;;10.25;;
76576;SDS011;65441;44.748;37.600;2022-12-31T14:49:39;24.08;;;11.77;;
76576;SDS011;65441;44.748;37.600;2022-12-31T14:52:21;28.27;;;12.88;;
76576;SDS011;65441;44.748;37.600;2022-12-31T14:55:02;23.55;;;10.65;;
76576;SDS011;65441;44.748;37.600;2022-12-31T14:57:59;21.48;;;9.63;;
76576;SDS011;65441;44.748;37.600;2022-12-31T15:00:35;22.48;;;9.75;;
76576;SDS011;65441;44.748;37.600;2022-12-31T15:03:21;24.60;;;10.35;;
76576;SDS011;65441;44.748;37.600;2022-12-31T15:06:04;30.25;;;12.43;;
76576;SDS011;65441;44.748;37.600;2022-12-31T15:08:48;26.45;;;11.80;;
76576;SDS011;65441;44.748;37.600;2022-12-31T15:11:35;30.90;;;10.75;;
76576;SDS011;65441;44.748;37.600;2022-12-31T15:14:32;23.60;;;10.80;;
76576;SDS011;65441;44.748;37.600;2022-12-31T15:17:31;30.65;;;11.48;;
76576;SDS011;65441;44.748;37.600;2022-12-31T15:23:24;27.02;;;11.65;;
76576;SDS011;65441;44.748;37.600;2022-12-31T15:26:15;26.35;;;11.73;;
76576;SDS011;65441;44.748;37.600;2022-12-31T15:28:59;25.15;;;11.77;;
76576;SDS011;65441;44.748;37.600;2022-12-31T15:31:35;24.92;;;11.40;;
76576;SDS011;65441;44.748;37.600;2022-12-31T15:34:23;27.13;;;12.60;;
76576;SDS011;65441;44.748;37.600;2022-12-31T15:37:01;28.02;;;12.27;;
76576;SDS011;65441;44.748;37.600;2022-12-31T15:39:40;25.27;;;12.02;;
76576;SDS011;65441;44.748;37.600;2022-12-31T15:42:37;21.60;;;11.38;;
76576;SDS011;65441;44.748;37.600;2022-12-31T15:45:17;23.02;;;10.82;;
76576;SDS011;65441;44.748;37.600;2022-12-31T15:47:55;20.75;;;11.05;;
76576;SDS011;65441;44.748;37.600;2022-12-31T15:50:32;20.95;;;10.45;;
76576;SDS011;65441;44.748;37.600;2022-12-31T15:53:09;35.85;;;15.55;;
76576;SDS011;65441;44.748;37.600;2022-12-31T15:55:57;30.80;;;15.98;;
76576;SDS011;65441;44.748;37.600;2022-12-31T15:58:33;29.58;;;15.93;;
76576;SDS011;65441;44.748;37.600;2022-12-31T16:01:11;26.25;;;12.55;;
76576;SDS011;65441;44.748;37.600;2022-12-31T16:03:53;28.50;;;12.55;;
76576;SDS011;65441;44.748;37.600;2022-12-31T16:06:30;25.98;;;11.48;;
76576;SDS011;65441;44.748;37.600;2022-12-31T16:09:08;26.33;;;12.38;;
76576;SDS011;65441;44.748;37.600;2022-12-31T16:11:53;29.02;;;12.48;;
76576;SDS011;65441;44.748;37.600;2022-12-31T16:14:30;25.02;;;11.50;;
76576;SDS011;65441;44.748;37.600;2022-12-31T16:17:20;29.73;;;12.60;;
76576;SDS011;65441;44.748;37.600;2022-12-31T16:20:19;24.35;;;11.23;;
76576;SDS011;65441;44.748;37.600;2022-12-31T16:22:54;23.67;;;11.43;;
76576;SDS011;65441;44.748;37.600;2022-12-31T16:25:30;28.75;;;11.77;;
76576;SDS011;65441;44.748;37.600;2022-12-31T16:28:04;24.95;;;10.82;;
76576;SDS011;65441;44.748;37.600;2022-12-31T16:30:39;28.38;;;11.75;;
76576;SDS011;65441;44.748;37.600;2022-12-31T16:33:14;28.80;;;11.80;;
76576;SDS011;65441;44.748;37.600;2022-12-31T16:35:53;23.35;;;11.05;;
76576;SDS011;65441;44.748;37.600;2022-12-31T16:38:32;25.00;;;12.30;;
76576;SDS011;65441;44.748;37.600;2022-12-31T16:41:10;28.63;;;12.68;;
76576;SDS011;65441;44.748;37.600;2022-12-31T16:43:54;26.05;;;12.25;;
76576;SDS011;65441;44.748;37.600;2022-12-31T16:49:06;23.13;;;10.63;;
76576;SDS011;65441;44.748;37.600;2022-12-31T16:51:49;28.67;;;12.15;;
76576;SDS011;65441;44.748;37.600;2022-12-31T16:54:24;28.50;;;12.68;;
76576;SDS011;65441;44.748;37.600;2022-12-31T16:57:01;28.35;;;13.00;;
76576;SDS011;65441;44.748;37.600;2022-12-31T16:59:38;33.75;;;14.80;;
76576;SDS011;65441;44.748;37.600;2022-12-31T17:02:14;31.38;;;15.25;;
76576;SDS011;65441;44.748;37.600;2022-12-31T17:04:52;30.85;;;13.80;;